Terminal Aerodrome Forecast
Issued by NWS Charleston, WV

Current Version | Previous Version | Text Only | Print | Product List | Glossary Off
Versions: 1 2 3 4 5 6 7 8 9 10 11 12 13 14 15 16 17 18 19 20 21 22 23 24 25 26 27

000
FTUS41 KRLX 220900 AAA
TAFCRW
TAF AMD
KCRW 220917Z 2209/2306 00000KT 5SM -SHRA BR SCT001 BKN080
      TEMPO 2209/2210 3SM SHRA BR BKN030
     FM221100 00000KT 4SM BR SCT001 SCT030 BKN080
     FM221300 00000KT P6SM BKN025
     FM221700 24005KT 6SM HZ VCTS BKN030CB
     FM222100 24006KT 5SM TSRA BR BKN025CB
     FM230100 VRB03KT 5SM BR BKN028=

USA.gov is the U.S. government's official web portal to all federal, state and local government web resources and services.